Terminal Aerodrome Forecast
Issued by NWS

Home | Current Version | Previous Version | Text Only | Print | Product List | Glossary On
Versions: 1 2 3 4 5 6 7 8 9 10 11 12 13 14
000
FTUS42 KMLB 260525
TAFLEE
TAF
KLEE 260525Z 2606/2706 11006KT P6SM FEW020 SCT250
     FM261400 13008KT P6SM FEW030
     FM261900 11012KT P6SM SCT040 BKN060
     FM270000 09010KT P6SM BKN250=

USA.gov is the U.S. government's official web portal to all federal, state and local government web resources and services.